Time;durP1;ratioP1;P1;durP2;ratioP2;P2;SDS_P1;SDS_P2;PMS_P1;PMS_P2;Temp;Humidity;BMP_temperature;BMP_pressure;BME280_temperature;BME280_humidity;BME280_pressure;Samples;Min_cycle;Max_cycle;Signal;HPM_P1;HPM_P2
2021/10/15 00:00:40;;;;;;;1.65;1.13;;;;;;;16.61;64.42;101749.16;5042625;28;20037;-90
2021/10/15 00:03:07;;;;;;;0.43;0.43;;;;;;;16.61;64.66;101736.69;5044378;28;20049;-90
2021/10/15 00:05:33;;;;;;;0.10;0.10;;;;;;;16.66;64.27;101742.75;5046044;28;20033;-89
2021/10/15 00:08:00;;;;;;;0.20;0.20;;;;;;;16.63;64.66;101736.63;5050794;28;20086;-86
2021/10/15 00:10:26;;;;;;;0.15;0.15;;;;;;;16.71;64.31;101729.25;5049784;28;20067;-87
2021/10/15 00:12:53;;;;;;;0.32;0.32;;;;;;;16.59;64.76;101725.13;5046282;28;20220;-90
2021/10/15 00:15:19;;;;;;;0.10;0.10;;;;;;;16.66;64.47;101724.03;5045673;28;20025;-90
2021/10/15 00:17:46;;;;;;;0.63;0.63;;;;;;;16.69;64.72;101717.69;5046505;28;20029;-88
2021/10/15 00:20:13;;;;;;;0.20;0.20;;;;;;;16.63;64.58;101728.59;5049670;28;20380;-89
2021/10/15 00:22:39;;;;;;;0.30;0.30;;;;;;;16.66;64.73;101717.81;5044860;28;20024;-90
2021/10/15 00:25:07;;;;;;;0.22;0.22;;;;;;;16.70;64.54;101724.81;5047007;28;20064;-90
2021/10/15 00:27:33;;;;;;;0.10;0.10;;;;;;;16.66;64.61;101724.03;5050019;28;20028;-86
2021/10/15 00:30:09;;;;;;;0.55;0.55;;;;;;;16.64;65.14;101711.63;5046041;28;20029;-84
2021/10/15 00:32:35;;;;;;;0.05;0.05;;;;;;;16.54;65.13;101716.38;5041977;28;20086;-88
2021/10/15 00:35:02;;;;;;;0.10;0.10;;;;;;;16.62;65.13;101702.75;5045770;28;20025;-85
2021/10/15 00:37:29;;;;;;;0.10;0.10;;;;;;;16.57;65.08;101702.91;5046551;28;20476;-85
2021/10/15 00:40:02;;;;;;;0.10;0.10;;;;;;;16.58;65.20;101696.63;5049171;28;20075;-85
2021/10/15 00:42:28;;;;;;;0.30;0.30;;;;;;;16.59;65.12;101700.19;5048101;28;20022;-89
2021/10/15 00:44:55;;;;;;;0.20;0.20;;;;;;;16.65;64.98;101689.31;5040090;28;20111;-89
2021/10/15 00:47:21;;;;;;;0.20;0.20;;;;;;;16.58;65.07;101685.94;5042586;28;20029;-90
2021/10/15 00:49:47;;;;;;;0.10;0.10;;;;;;;16.56;65.24;101684.22;5043828;28;20033;-90
2021/10/15 00:52:15;;;;;;;0.47;0.47;;;;;;;16.57;65.59;101677.97;5047415;28;20025;-88
2021/10/15 00:54:42;;;;;;;0.20;0.20;;;;;;;16.65;65.02;101679.47;5042925;28;20554;-88
2021/10/15 00:57:12;;;;;;;0.20;0.20;;;;;;;16.74;64.76;101680.09;5042986;28;20033;-88
2021/10/15 00:59:40;;;;;;;0.15;0.15;;;;;;;16.59;65.25;101673.44;5044603;28;20029;-87
2021/10/15 01:02:07;;;;;;;0.30;0.30;;;;;;;16.60;65.28;101668.03;5055248;28;20055;-89
2021/10/15 01:04:35;;;;;;;0.45;0.45;;;;;;;16.63;65.59;101667.91;5048873;28;20174;-89
2021/10/15 01:07:03;;;;;;;0.68;0.68;;;;;;;16.60;65.60;101661.81;5043507;28;20036;-88
2021/10/15 01:09:31;;;;;;;0.10;0.10;;;;;;;16.48;65.99;101653.22;5039523;28;20013;-86
2021/10/15 01:12:00;;;;;;;0.30;0.30;;;;;;;16.52;65.62;101661.19;5044545;28;20109;-89
2021/10/15 01:14:27;;;;;;;0.10;0.10;;;;;;;16.61;65.85;101652.84;5044476;28;20026;-89
2021/10/15 01:16:53;;;;;;;0.93;0.52;;;;;;;16.70;65.17;101649.88;5041248;28;20029;-89
2021/10/15 01:19:20;;;;;;;0.10;0.10;;;;;;;16.71;65.47;101654.31;5044623;28;20480;-90
2021/10/15 01:21:46;;;;;;;0.28;0.28;;;;;;;16.58;65.73;101652.97;5046162;28;20468;-88
2021/10/15 01:24:14;;;;;;;0.30;0.30;;;;;;;16.56;65.92;101650.34;5048064;28;20025;-88
2021/10/15 01:26:41;;;;;;;0.20;0.20;;;;;;;16.70;65.10;101649.88;5043968;28;20068;-89
2021/10/15 01:29:08;;;;;;;0.35;0.35;;;;;;;16.60;65.72;101651.13;5042683;28;20021;-89
2021/10/15 01:31:36;;;;;;;9.55;2.72;;;;;;;16.54;65.89;101637.94;5044253;28;20390;-89
2021/10/15 01:34:06;;;;;;;0.38;0.38;;;;;;;16.63;65.67;101643.84;5047976;28;20029;-89
2021/10/15 01:36:33;;;;;;;1.65;1.48;;;;;;;16.59;65.70;101627.97;5047592;28;20045;-89
2021/10/15 01:38:59;;;;;;;0.30;0.30;;;;;;;16.67;65.84;101631.25;5054569;28;20024;-88
2021/10/15 01:41:25;;;;;;;0.10;0.10;;;;;;;16.63;65.95;101618.91;5053330;28;20548;-90
2021/10/15 01:43:52;;;;;;;0.55;0.55;;;;;;;16.77;65.33;101616.66;5043821;28;20029;-89
2021/10/15 01:46:18;;;;;;;0.28;0.28;;;;;;;16.78;65.36;101614.84;5043527;28;20029;-89
2021/10/15 01:48:45;;;;;;;0.47;0.47;;;;;;;16.78;65.37;101614.84;5042373;28;20041;-89
2021/10/15 01:51:11;;;;;;;0.75;0.75;;;;;;;16.74;65.45;101615.88;5041967;28;20017;-89
2021/10/15 01:53:38;;;;;;;0.17;0.17;;;;;;;16.77;65.28;101607.72;5038929;28;20113;-90
2021/10/15 01:56:04;;;;;;;1.75;1.65;;;;;;;16.70;65.38;101598.16;5040929;28;20115;-90
2021/10/15 01:58:31;;;;;;;0.10;0.10;;;;;;;16.78;65.23;101602.31;5042249;28;20040;-89
2021/10/15 02:00:57;;;;;;;0.20;0.20;;;;;;;16.70;65.54;101595.47;5040386;28;20029;-89
2021/10/15 02:03:24;;;;;;;0.82;0.82;;;;;;;16.73;65.53;101601.59;5040938;28;20464;-90
2021/10/15 02:05:50;;;;;;;0.80;0.80;;;;;;;16.80;65.21;101599.63;5042212;28;20396;-88
2021/10/15 02:08:17;;;;;;;0.30;0.30;;;;;;;16.79;65.51;101588.00;5040414;28;20037;-90
2021/10/15 02:10:43;;;;;;;0.10;0.10;;;;;;;16.74;65.34;101586.44;5039661;28;20036;-88
2021/10/15 02:13:10;;;;;;;0.05;0.05;;;;;;;16.72;65.95;101589.16;5042336;28;20037;-90
2021/10/15 02:15:38;;;;;;;0.10;0.10;;;;;;;16.76;65.45;101585.47;5044640;28;20029;-86
2021/10/15 02:18:05;;;;;;;0.10;0.10;;;;;;;16.85;65.04;101586.06;5047617;28;20389;-90
2021/10/15 02:20:32;;;;;;;0.10;0.10;;;;;;;16.77;65.50;101584.53;5051473;28;20806;-88
2021/10/15 02:23:06;;;;;;;1.95;1.20;;;;;;;16.74;65.57;101573.94;5050504;28;20477;-89
2021/10/15 02:25:32;;;;;;;0.55;0.55;;;;;;;16.67;65.79;101580.41;5044186;28;20048;-88
2021/10/15 02:28:02;;;;;;;0.10;0.10;;;;;;;16.81;65.41;101579.97;5043203;28;20029;-85
2021/10/15 02:30:29;;;;;;;0.10;0.10;;;;;;;16.71;65.79;101573.16;5043906;28;20370;-89
2021/10/15 02:32:55;;;;;;;0.05;0.05;;;;;;;16.63;66.54;101571.59;5049140;28;20389;-89
2021/10/15 02:35:22;;;;;;;3.13;1.23;;;;;;;16.59;66.10;101574.47;5050629;28;20515;-88
2021/10/15 02:37:48;;;;;;;0.80;0.80;;;;;;;16.73;65.80;101564.13;5045366;28;20043;-88
2021/10/15 02:40:15;;;;;;;0.10;0.10;;;;;;;16.75;65.64;101551.59;5046086;28;20417;-88
2021/10/15 02:42:42;;;;;;;0.55;0.55;;;;;;;16.67;66.12;101556.31;5044522;28;20040;-89
2021/10/15 02:45:09;;;;;;;0.25;0.25;;;;;;;16.69;65.70;101546.44;5045347;28;20030;-90
2021/10/15 02:47:36;;;;;;;0.10;0.10;;;;;;;16.57;66.40;101550.41;5043689;28;20396;-87
2021/10/15 02:50:03;;;;;;;0.10;0.10;;;;;;;16.63;66.16;101554.69;5046418;28;20033;-89
2021/10/15 02:52:30;;;;;;;0.38;0.38;;;;;;;16.63;66.17;101547.53;5043041;28;20036;-89
2021/10/15 02:54:56;;;;;;;0.25;0.25;;;;;;;16.76;65.78;101545.31;5045171;28;20021;-89
2021/10/15 02:57:23;;;;;;;0.30;0.30;;;;;;;16.74;66.40;101552.50;5045071;28;20112;-89
2021/10/15 02:59:49;;;;;;;0.17;0.17;;;;;;;16.78;65.92;101550.59;5045675;28;20021;-87
2021/10/15 03:02:15;;;;;;;0.10;0.10;;;;;;;16.77;66.30;101544.41;5046164;28;20014;-88
2021/10/15 03:04:42;;;;;;;0.10;0.10;;;;;;;16.68;66.56;101536.66;5044831;28;20411;-87
2021/10/15 03:07:09;;;;;;;0.20;0.20;;;;;;;16.76;66.04;101539.97;5045405;28;20090;-88
2021/10/15 03:09:35;;;;;;;1.65;0.90;;;;;;;16.66;66.69;101533.19;5044099;28;20515;-88
2021/10/15 03:12:02;;;;;;;0.50;0.50;;;;;;;16.54;67.23;101528.25;5047687;28;20462;-88
2021/10/15 03:14:28;;;;;;;0.40;0.40;;;;;;;16.55;67.07;101527.31;5055897;28;20120;-88
2021/10/15 03:16:55;;;;;;;0.88;0.75;;;;;;;16.62;67.18;101526.19;5046185;28;20040;-89
2021/10/15 03:19:21;;;;;;;0.20;0.20;;;;;;;16.63;66.92;101528.78;5046406;28;20024;-89
2021/10/15 03:21:48;;;;;;;0.40;0.40;;;;;;;16.70;66.48;101528.59;5047425;28;20036;-87
2021/10/15 03:24:14;;;;;;;0.43;0.43;;;;;;;16.67;66.49;101532.25;5058590;28;20041;-86
2021/10/15 03:26:41;;;;;;;0.10;0.10;;;;;;;16.59;67.15;101531.66;5054092;28;20081;-88
2021/10/15 03:29:07;;;;;;;0.10;0.10;;;;;;;16.63;66.80;101530.59;5048139;28;20032;-88
2021/10/15 03:31:38;;;;;;;0.10;0.10;;;;;;;16.68;66.42;101525.97;5050543;28;20029;-87
2021/10/15 03:34:04;;;;;;;0.20;0.20;;;;;;;16.65;66.38;101521.59;5047961;28;20124;-87
2021/10/15 03:36:30;;;;;;;0.10;0.10;;;;;;;16.63;66.92;101511.88;5058404;28;20036;-88
2021/10/15 03:38:57;;;;;;;0.50;0.25;;;;;;;16.62;66.70;101521.72;5048934;28;20116;-89
2021/10/15 03:41:24;;;;;;;0.10;0.10;;;;;;;16.56;67.28;101513.00;5054173;28;20411;-89
2021/10/15 03:43:59;;;;;;;0.65;0.65;;;;;;;16.70;66.44;101508.06;5049628;28;20029;-87
2021/10/15 03:46:26;;;;;;;0.10;0.10;;;;;;;16.67;66.79;101513.50;5048847;28;20032;-88
2021/10/15 03:48:52;;;;;;;0.10;0.10;;;;;;;16.54;67.18;101520.25;5052510;28;20017;-88
2021/10/15 03:51:19;;;;;;;0.63;0.63;;;;;;;16.64;66.91;101521.66;5054878;28;20080;-88
2021/10/15 03:53:45;;;;;;;0.10;0.10;;;;;;;16.65;66.36;101510.03;5045722;28;20056;-85
2021/10/15 03:56:12;;;;;;;0.22;0.22;;;;;;;16.78;66.40;101513.16;5051809;28;20022;-88
2021/10/15 03:58:38;;;;;;;0.60;0.60;;;;;;;16.70;66.32;101523.22;5054424;28;20024;-87
2021/10/15 04:01:04;;;;;;;0.98;0.98;;;;;;;16.65;66.54;101518.94;5045050;28;20032;-85
2021/10/15 04:03:30;;;;;;;0.10;0.10;;;;;;;16.73;66.47;101518.66;5048079;28;20047;-88
2021/10/15 04:05:58;;;;;;;2.90;1.58;;;;;;;16.78;66.37;101516.69;5049061;28;20389;-87
2021/10/15 04:08:24;;;;;;;0.55;0.55;;;;;;;16.74;66.20;101515.06;5053043;28;20056;-89
2021/10/15 04:10:51;;;;;;;0.10;0.10;;;;;;;16.68;66.79;101514.41;5051201;28;20563;-87
2021/10/15 04:13:17;;;;;;;0.68;0.68;;;;;;;16.79;66.20;101518.44;5053460;28;20083;-87
2021/10/15 04:15:43;;;;;;;0.32;0.32;;;;;;;16.76;66.59;101521.25;5047525;28;20025;-88
2021/10/15 04:18:10;;;;;;;1.48;1.38;;;;;;;16.79;66.22;101515.75;5050681;28;20044;-88
2021/10/15 04:20:36;;;;;;;0.10;0.10;;;;;;;16.81;66.28;101513.91;5053388;28;20020;-88
2021/10/15 04:23:02;;;;;;;0.28;0.28;;;;;;;16.73;66.77;101510.63;5044313;28;20040;-88
2021/10/15 04:25:29;;;;;;;1.00;1.00;;;;;;;16.80;66.61;101509.47;5045432;28;20021;-88
2021/10/15 04:27:55;;;;;;;0.10;0.10;;;;;;;16.83;66.41;101508.50;5047998;28;20109;-87
2021/10/15 04:30:21;;;;;;;0.13;0.13;;;;;;;16.80;66.52;101501.47;5047718;28;20024;-88
2021/10/15 04:32:48;;;;;;;0.20;0.20;;;;;;;16.71;65.88;101504.47;5047511;28;20033;-88
2021/10/15 04:35:14;;;;;;;1.25;0.85;;;;;;;16.82;65.84;101507.63;5052035;28;20403;-88
2021/10/15 04:37:40;;;;;;;0.25;0.25;;;;;;;16.58;64.98;101511.16;5049267;28;20037;-88
2021/10/15 04:40:07;;;;;;;0.20;0.20;;;;;;;16.86;64.46;101508.41;5047920;28;20040;-89
2021/10/15 04:42:36;;;;;;;0.10;0.10;;;;;;;16.88;64.11;101511.03;5053130;28;20025;-89
2021/10/15 04:45:02;;;;;;;0.10;0.10;;;;;;;16.99;63.40;101503.50;5048434;28;20064;-88
2021/10/15 04:47:29;;;;;;;0.10;0.10;;;;;;;17.15;62.83;101517.22;5043739;28;20041;-87
2021/10/15 04:49:55;;;;;;;0.20;0.20;;;;;;;17.04;62.99;101522.94;5043905;28;20029;-87
2021/10/15 04:52:21;;;;;;;0.10;0.10;;;;;;;17.17;62.92;101501.06;5050234;28;20076;-87
2021/10/15 04:54:49;;;;;;;0.10;0.10;;;;;;;17.13;62.16;101501.22;5050826;28;20120;-89
2021/10/15 04:57:15;;;;;;;0.82;0.43;;;;;;;17.12;62.04;101499.47;5047972;28;20492;-87
2021/10/15 04:59:42;;;;;;;1.20;1.13;;;;;;;17.30;61.79;101500.56;5048486;28;20484;-88
2021/10/15 05:02:08;;;;;;;0.60;0.60;;;;;;;17.28;61.52;101496.19;5049476;28;20029;-88
2021/10/15 05:04:35;;;;;;;0.10;0.10;;;;;;;17.21;61.84;101503.59;5052803;28;20036;-86
2021/10/15 05:07:01;;;;;;;0.10;0.10;;;;;;;17.33;61.46;101490.66;5048837;28;20033;-88
2021/10/15 05:09:35;;;;;;;0.00;0.00;;;;;;;17.35;61.22;101489.69;5049520;28;20025;-88
2021/10/15 05:12:05;;;;;;;0.10;0.10;;;;;;;17.28;61.01;101501.53;5048765;28;20040;-88
2021/10/15 05:14:33;;;;;;;0.10;0.10;;;;;;;17.46;61.02;101487.47;5052126;28;20107;-89
2021/10/15 05:17:01;;;;;;;0.10;0.10;;;;;;;17.40;60.90;101487.69;5048213;28;20078;-87
2021/10/15 05:19:28;;;;;;;2.08;0.30;;;;;;;17.53;60.72;101497.94;5048319;28;20039;-88
2021/10/15 05:21:55;;;;;;;0.10;0.10;;;;;;;17.36;60.85;101491.44;5047685;28;20061;-88
2021/10/15 05:24:21;;;;;;;0.82;0.82;;;;;;;17.43;60.87;101492.94;5051558;28;20020;-88
2021/10/15 05:26:47;;;;;;;0.63;0.63;;;;;;;17.52;60.90;101488.16;5051090;28;20107;-88
2021/10/15 05:29:14;;;;;;;0.40;0.40;;;;;;;17.54;60.62;101499.69;5047493;28;20021;-88
2021/10/15 05:31:40;;;;;;;0.40;0.40;;;;;;;17.51;60.52;101491.75;5046885;28;20362;-89
2021/10/15 05:34:06;;;;;;;0.10;0.10;;;;;;;17.52;60.51;101490.81;5044539;28;20104;-89
2021/10/15 05:36:32;;;;;;;0.40;0.40;;;;;;;17.65;60.50;101491.25;5049999;28;20033;-89
2021/10/15 05:38:58;;;;;;;0.10;0.10;;;;;;;17.51;60.60;101500.69;5041946;28;20083;-89
2021/10/15 05:41:25;;;;;;;0.52;0.47;;;;;;;17.42;60.91;101488.50;5047512;28;20029;-89
2021/10/15 05:43:51;;;;;;;0.40;0.40;;;;;;;17.36;60.85;101495.91;5044107;28;20496;-88
2021/10/15 05:46:17;;;;;;;0.10;0.10;;;;;;;17.34;61.04;101506.69;5048911;28;20037;-90
2021/10/15 05:48:43;;;;;;;0.45;0.45;;;;;;;17.47;61.14;101507.09;5045695;28;20483;-90
2021/10/15 05:51:10;;;;;;;0.10;0.10;;;;;;;17.11;64.28;101524.47;5067114;28;20036;-93
2021/10/15 05:53:39;;;;;;;0.10;0.10;;;;;;;16.76;65.87;101523.91;5075307;28;20471;-91
2021/10/15 05:58:53;;;;;;;1.23;1.23;;;;;;;16.41;67.78;101523.31;5049921;28;20032;-95
2021/10/15 06:01:24;;;;;;;0.10;0.10;;;;;;;16.40;67.28;101529.59;5078428;28;20031;-93
2021/10/15 06:08:07;;;;;;;0.75;0.75;;;;;;;16.17;68.78;101519.66;5075555;28;20455;-96
2021/10/15 06:15:35;;;;;;;0.10;0.10;;;;;;;16.13;68.57;101529.56;5050736;28;20040;-96
2021/10/15 06:18:10;;;;;;;0.10;0.10;;;;;;;16.07;69.21;101553.81;5051446;28;20033;-95
2021/10/15 06:20:38;;;;;;;0.10;0.10;;;;;;;15.78;70.11;101570.75;5034881;28;20427;-95
2021/10/15 06:23:04;;;;;;;0.55;0.55;;;;;;;15.75;69.50;101576.16;5051653;28;20072;-93
2021/10/15 06:25:30;;;;;;;0.10;0.10;;;;;;;15.83;69.35;101576.84;5050638;28;20071;-94
2021/10/15 06:27:59;;;;;;;0.10;0.10;;;;;;;15.88;68.11;101574.06;5050988;28;20057;-95
2021/10/15 06:30:26;;;;;;;0.10;0.10;;;;;;;15.80;68.31;101585.81;5050714;28;20067;-94
2021/10/15 06:32:53;;;;;;;0.10;0.10;;;;;;;15.79;67.91;101600.09;5050810;28;20472;-96
2021/10/15 06:35:19;;;;;;;2.35;1.45;;;;;;;15.67;68.28;101601.31;5051238;28;20029;-96
2021/10/15 06:37:45;;;;;;;0.10;0.10;;;;;;;15.54;68.95;101605.28;5050343;28;20025;-96
2021/10/15 06:40:12;;;;;;;0.10;0.10;;;;;;;15.45;68.83;101611.75;5051271;28;20112;-96
2021/10/15 06:42:38;;;;;;;0.10;0.10;;;;;;;15.32;69.10;101615.69;5033789;28;20388;-95
2021/10/15 06:45:06;;;;;;;0.10;0.10;;;;;;;15.28;69.05;101619.34;5038833;28;20037;-96
2021/10/15 06:47:32;;;;;;;0.10;0.10;;;;;;;15.20;69.13;101631.09;5051258;28;20021;-96
2021/10/15 06:49:59;;;;;;;0.10;0.10;;;;;;;15.22;69.31;101640.88;5050277;28;20020;-95
2021/10/15 06:52:26;;;;;;;0.10;0.10;;;;;;;15.13;69.28;101640.19;5046571;28;20164;-96
2021/10/15 06:54:54;;;;;;;0.10;0.10;;;;;;;15.18;69.11;101656.97;5034527;28;20029;-92
2021/10/15 06:57:20;;;;;;;0.10;0.10;;;;;;;15.14;68.92;101660.63;5052150;28;20074;-93
2021/10/15 06:59:46;;;;;;;0.10;0.10;;;;;;;14.87;69.79;101660.41;5037463;28;20477;-96
2021/10/15 07:02:12;;;;;;;0.00;0.00;;;;;;;14.88;69.79;101666.63;5045575;28;20074;-96
2021/10/15 07:04:39;;;;;;;0.10;0.10;;;;;;;14.80;69.67;101672.13;5048813;28;20112;-92
2021/10/15 07:07:05;;;;;;;0.82;0.82;;;;;;;14.86;69.17;101677.31;5047396;28;20029;-94
2021/10/15 07:09:31;;;;;;;0.20;0.20;;;;;;;14.77;69.93;101672.22;5048260;28;20029;-96
2021/10/15 07:11:57;;;;;;;0.10;0.10;;;;;;;14.85;69.55;101686.28;5047191;28;20476;-94
2021/10/15 07:14:27;;;;;;;0.10;0.10;;;;;;;14.84;69.54;101692.50;5048016;28;20495;-94
2021/10/15 07:16:53;;;;;;;0.10;0.10;;;;;;;14.90;69.21;101695.94;5046307;28;20032;-93
2021/10/15 07:19:19;;;;;;;0.10;0.10;;;;;;;14.88;69.07;101691.50;5046712;28;20044;-94
2021/10/15 07:21:45;;;;;;;0.00;0.00;;;;;;;14.92;69.23;101697.66;5045030;28;20036;-92
2021/10/15 07:24:11;;;;;;;0.10;0.10;;;;;;;14.93;69.00;101703.84;5032518;28;20030;-93
2021/10/15 07:26:37;;;;;;;0.10;0.10;;;;;;;14.98;68.94;101699.31;5034964;28;20026;-94
2021/10/15 07:29:05;;;;;;;0.10;0.10;;;;;;;15.01;68.88;101705.41;5035334;28;20029;-93
2021/10/15 07:31:32;;;;;;;0.15;0.15;;;;;;;14.97;68.94;101705.56;5033922;28;20153;-93
2021/10/15 07:33:58;;;;;;;0.10;0.10;;;;;;;15.03;68.82;101705.41;5033789;28;20025;-88
2021/10/15 07:36:25;;;;;;;0.10;0.10;;;;;;;15.01;68.75;101716.09;5033926;28;20075;-94
2021/10/15 07:38:51;;;;;;;0.00;0.00;;;;;;;14.99;68.76;101722.38;5032078;28;20046;-95
2021/10/15 07:41:18;;;;;;;0.10;0.10;;;;;;;15.06;68.79;101726.66;5029603;28;20033;-87
2021/10/15 07:43:47;;;;;;;0.03;0.03;;;;;;;15.12;68.72;101726.50;5033723;28;20021;-92
2021/10/15 07:46:13;;;;;;;0.00;0.00;;;;;;;15.13;68.66;101730.09;5046711;28;20043;-91
2021/10/15 07:48:39;;;;;;;0.10;0.10;;;;;;;15.20;68.50;101737.91;5048552;28;20539;-92
2021/10/15 07:51:07;;;;;;;0.10;0.10;;;;;;;15.27;68.72;101735.94;5034843;28;20115;-91
2021/10/15 07:53:34;;;;;;;0.10;0.10;;;;;;;15.26;68.73;101744.00;5034881;28;20044;-86
2021/10/15 07:56:00;;;;;;;0.95;0.90;;;;;;;15.36;68.49;101742.81;5035668;28;20030;-91
2021/10/15 07:58:26;;;;;;;0.10;0.10;;;;;;;15.35;68.70;101749.97;5032551;28;20029;-85
2021/10/15 08:00:53;;;;;;;0.10;0.10;;;;;;;15.43;68.24;101746.25;5027578;28;20052;-85
2021/10/15 08:03:19;;;;;;;0.10;0.10;;;;;;;15.41;68.21;101764.94;5032767;28;20034;-91
2021/10/15 08:05:47;;;;;;;0.17;0.17;;;;;;;15.40;67.86;101765.84;5033489;28;20060;-92
2021/10/15 08:08:13;;;;;;;0.50;0.50;;;;;;;15.38;67.57;101770.38;5037811;28;20033;-89
2021/10/15 08:10:40;;;;;;;0.10;0.10;;;;;;;15.41;67.62;101767.63;5033657;28;20037;-89
2021/10/15 08:13:06;;;;;;;0.10;0.10;;;;;;;15.41;67.74;101775.63;5034306;28;20460;-88
2021/10/15 08:15:32;;;;;;;0.10;0.10;;;;;;;15.43;67.46;101786.28;5034306;28;20029;-89
2021/10/15 08:17:59;;;;;;;0.10;0.10;;;;;;;15.44;67.54;101791.59;5034407;28;20029;-88
2021/10/15 08:20:25;;;;;;;0.10;0.10;;;;;;;15.45;67.61;101787.13;5033920;28;20064;-89
2021/10/15 08:22:53;;;;;;;0.10;0.10;;;;;;;15.45;67.31;101793.34;5034080;28;20037;-89
2021/10/15 08:25:19;;;;;;;0.10;0.10;;;;;;;15.43;67.45;101797.84;5033969;28;20038;-90
2021/10/15 08:27:46;;;;;;;0.10;0.10;;;;;;;15.47;67.16;101803.97;5033866;28;20374;-88
2021/10/15 08:30:12;;;;;;;0.10;0.10;;;;;;;15.52;67.17;101804.75;5033703;28;20048;-88
2021/10/15 08:32:38;;;;;;;0.10;0.10;;;;;;;15.45;67.06;101804.03;5033889;28;20025;-89
2021/10/15 08:35:05;;;;;;;0.10;0.10;;;;;;;15.52;66.94;101804.75;5032596;28;20029;-88
2021/10/15 08:37:32;;;;;;;0.10;0.10;;;;;;;15.49;67.10;101811.03;5033965;28;20115;-93
2021/10/15 08:40:01;;;;;;;0.10;0.10;;;;;;;15.61;66.87;101809.84;5033716;28;20117;-92
2021/10/15 08:42:27;;;;;;;0.10;0.10;;;;;;;15.71;66.89;101815.81;5033656;28;20489;-91
2021/10/15 08:44:53;;;;;;;0.10;0.10;;;;;;;15.84;67.20;101816.44;5033627;28;20112;-93
2021/10/15 08:47:19;;;;;;;0.10;0.10;;;;;;;15.91;66.36;101822.47;5033376;28;20514;-92
2021/10/15 08:49:46;;;;;;;0.10;0.10;;;;;;;16.03;66.09;101822.16;5033794;28;20064;-91
2021/10/15 08:52:13;;;;;;;0.10;0.10;;;;;;;16.07;66.20;101833.63;5034691;28;20396;-93
2021/10/15 08:54:43;;;;;;;0.40;0.40;;;;;;;16.04;64.30;101826.59;5032733;28;20032;-91
2021/10/15 08:57:10;;;;;;;0.10;0.10;;;;;;;16.07;64.72;101830.97;5033258;28;20087;-92
2021/10/15 08:59:39;;;;;;;0.10;0.10;;;;;;;16.06;64.98;101829.22;5014498;28;20033;-93
2021/10/15 09:04:55;;;;;;;0.10;0.10;;;;;;;16.19;64.91;101838.66;5069839;27;20417;-89
2021/10/15 09:07:23;;;;;;;0.10;0.10;;;;;;;16.17;64.60;101846.72;5070067;28;20107;-91
2021/10/15 09:10:06;;;;;;;0.20;0.20;;;;;;;16.17;64.11;101852.06;5070025;28;20119;-90
2021/10/15 09:12:46;;;;;;;0.10;0.10;;;;;;;16.31;64.55;101856.13;5069691;28;20463;-91
2021/10/15 09:15:13;;;;;;;0.20;0.20;;;;;;;16.24;63.17;101857.25;5070196;28;20050;-91
2021/10/15 09:17:55;;;;;;;0.10;0.10;;;;;;;16.35;63.20;101860.50;5070238;28;20087;-91
2021/10/15 09:20:36;;;;;;;0.10;0.10;;;;;;;16.22;62.29;101856.41;5070057;28;20491;-91
2021/10/15 09:23:03;;;;;;;0.10;0.10;;;;;;;16.17;63.72;101859.19;5069560;28;20044;-91
2021/10/15 09:25:34;;;;;;;0.10;0.10;;;;;;;16.15;63.44;101864.59;5069836;28;20079;-92
2021/10/15 09:28:01;;;;;;;0.10;0.10;;;;;;;16.08;62.11;101854.97;5070136;28;20025;-91
2021/10/15 09:30:29;;;;;;;0.10;0.10;;;;;;;16.12;61.60;101864.66;5069745;28;20307;-92
2021/10/15 09:32:58;;;;;;;1.15;0.40;;;;;;;16.22;61.71;101867.09;5069600;28;20051;-91
2021/10/15 09:35:26;;;;;;;0.10;0.10;;;;;;;16.21;60.83;101873.38;5069671;28;20037;-84
2021/10/15 09:38:00;;;;;;;0.10;0.10;;;;;;;16.23;61.47;101871.53;5070030;28;20095;-91
2021/10/15 09:40:30;;;;;;;0.10;0.10;;;;;;;16.30;61.76;101878.47;5069496;28;20032;-91
2021/10/15 09:43:02;;;;;;;0.13;0.13;;;;;;;16.24;59.70;101882.19;5069234;28;20380;-91
2021/10/15 09:45:42;;;;;;;0.10;0.10;;;;;;;16.29;60.01;101877.59;5069232;28;20085;-92
2021/10/15 09:48:38;;;;;;;0.10;0.10;;;;;;;16.39;59.50;101894.25;5055689;28;20460;-90
2021/10/15 09:51:21;;;;;;;0.35;0.35;;;;;;;16.44;58.68;101889.66;5039609;28;20496;-90
2021/10/15 09:56:52;;;;;;;0.10;0.10;;;;;;;16.37;55.98;101890.72;5051098;28;20395;-91
2021/10/15 09:59:19;;;;;;;0.10;0.10;;;;;;;16.48;57.87;101888.63;5059456;28;20281;-92
2021/10/15 10:01:45;;;;;;;0.05;0.05;;;;;;;16.50;57.85;101894.84;5050179;28;20029;-91
2021/10/15 10:04:13;;;;;;;0.10;0.10;;;;;;;16.59;56.97;101900.84;5038143;28;20076;-91
2021/10/15 10:06:39;;;;;;;0.10;0.10;;;;;;;16.62;57.38;101901.66;5029689;28;20386;-90
2021/10/15 10:09:07;;;;;;;0.10;0.10;;;;;;;16.70;57.90;101904.09;5024211;28;20045;-86
2021/10/15 10:11:34;;;;;;;0.08;0.08;;;;;;;16.75;56.68;101904.84;5029722;28;20056;-91
2021/10/15 10:14:00;;;;;;;0.10;0.10;;;;;;;16.71;52.82;101908.53;5029846;28;20069;-90
2021/10/15 10:16:30;;;;;;;0.10;0.10;;;;;;;16.79;53.26;101909.16;5029036;28;20044;-90
2021/10/15 10:19:01;;;;;;;0.10;0.10;;;;;;;16.84;53.83;101910.84;5027889;28;20029;-90
2021/10/15 10:21:33;;;;;;;0.10;0.10;;;;;;;16.92;54.47;101914.19;5027065;28;20402;-90
2021/10/15 10:24:12;;;;;;;0.10;0.10;;;;;;;17.05;55.26;101904.88;5029842;28;20067;-86
2021/10/15 10:26:55;;;;;;;0.00;0.00;;;;;;;17.17;53.24;101908.09;5028000;28;20056;-91
2021/10/15 10:29:22;;;;;;;0.20;0.20;;;;;;;17.24;54.94;101909.69;5009678;28;20030;-91
2021/10/15 10:31:51;;;;;;;0.10;0.10;;;;;;;17.28;53.28;101922.03;5014435;28;20059;-90
2021/10/15 10:34:27;;;;;;;0.10;0.10;;;;;;;17.19;50.67;101927.69;5029211;28;20468;-92
2021/10/15 10:37:10;;;;;;;0.40;0.40;;;;;;;17.42;52.61;101919.81;5028909;28;20092;-91
2021/10/15 10:39:37;;;;;;;0.10;0.10;;;;;;;17.45;53.63;101926.88;5029656;28;20113;-90
2021/10/15 10:47:28;;;;;;;0.08;0.08;;;;;;;17.83;53.25;101923.88;5081451;28;20520;-89
2021/10/15 10:50:12;;;;;;;0.10;0.10;;;;;;;17.84;51.04;101925.63;5070186;28;20239;-89
2021/10/15 10:58:31;;;;;;;0.10;0.10;;;;;;;18.17;48.54;101933.47;5086834;28;20456;-88
2021/10/15 11:01:18;;;;;;;0.47;0.47;;;;;;;18.36;48.50;101937.28;5050117;28;20047;-88
2021/10/15 11:03:44;;;;;;;0.10;0.10;;;;;;;18.51;50.66;101951.09;5049442;28;20041;-89
2021/10/15 11:06:10;;;;;;;0.10;0.10;;;;;;;18.39;48.52;101953.28;5049573;28;20033;-88
2021/10/15 11:08:37;;;;;;;0.00;0.00;;;;;;;18.26;49.53;101957.31;5049782;28;20465;-89
2021/10/15 11:14:03;;;;;;;0.10;0.10;;;;;;;17.89;50.71;101963.88;5078950;28;20465;-89
2021/10/15 11:16:30;;;;;;;0.10;0.10;;;;;;;17.63;50.90;101968.28;5070479;28;20040;-87
2021/10/15 11:18:56;;;;;;;0.10;0.10;;;;;;;17.49;51.42;101973.22;5070374;28;20475;-88
2021/10/15 11:21:23;;;;;;;0.10;0.10;;;;;;;17.26;50.83;101980.16;5070003;28;20108;-83
2021/10/15 11:23:54;;;;;;;0.00;0.00;;;;;;;17.37;51.35;101986.06;5052706;28;20041;-88
2021/10/15 11:26:33;;;;;;;0.10;0.10;;;;;;;17.47;49.79;101986.66;5047651;28;20025;-90
2021/10/15 11:29:11;;;;;;;0.15;0.15;;;;;;;17.59;49.00;101980.03;5047204;28;20112;-90
2021/10/15 11:31:38;;;;;;;0.10;0.10;;;;;;;17.75;50.58;101996.50;5047650;28;20072;-88
2021/10/15 11:34:12;;;;;;;0.10;0.10;;;;;;;17.91;50.29;101988.84;5049423;28;20564;-90
2021/10/15 11:36:39;;;;;;;0.10;0.10;;;;;;;18.03;50.45;101991.16;5048121;28;20033;-88
2021/10/15 11:39:05;;;;;;;0.10;0.10;;;;;;;18.14;47.66;101988.13;5049451;28;20388;-91
2021/10/15 11:41:32;;;;;;;0.10;0.10;;;;;;;18.29;49.25;101991.22;5049645;28;20029;-86
2021/10/15 11:43:58;;;;;;;0.38;0.38;;;;;;;18.40;48.58;101983.66;5048721;28;20041;-90
2021/10/15 11:46:32;;;;;;;0.10;0.10;;;;;;;18.65;49.41;101982.81;5048538;28;20396;-90
2021/10/15 11:49:00;;;;;;;0.10;0.10;;;;;;;18.79;48.77;101982.31;5048111;28;20472;-90
2021/10/15 11:51:28;;;;;;;0.13;0.13;;;;;;;19.02;49.78;101986.88;5045012;28;20025;-91
2021/10/15 11:53:59;;;;;;;0.10;0.10;;;;;;;19.13;47.27;101986.44;5049052;28;20033;-89
2021/10/15 11:56:28;;;;;;;0.10;0.10;;;;;;;19.19;46.30;101983.53;5043461;28;20029;-90
2021/10/15 11:58:57;;;;;;;0.10;0.10;;;;;;;19.21;45.68;101987.03;5047993;28;20476;-88